Time;durP1;ratioP1;P1;durP2;ratioP2;P2;SDS_P1;SDS_P2;PMS_P1;PMS_P2;Temp;Humidity;BMP_temperature;BMP_pressure;BME280_temperature;BME280_humidity;BME280_pressure;Samples;Min_cycle;Max_cycle;Signal;HPM_P1;HPM_P2
2023/03/26 00:00:39;;;;;;;5.70;1.23;;;;;;;8.86;100.00;99682.53;5033190;28;20546;-65
2023/03/26 00:03:08;;;;;;;4.90;1.20;;;;;;;8.90;100.00;99686.19;5033461;28;20509;-65
2023/03/26 00:05:35;;;;;;;7.70;1.27;;;;;;;8.91;100.00;99687.78;5037004;28;20474;-64
2023/03/26 00:08:02;;;;;;;6.40;1.10;;;;;;;8.93;99.31;99690.16;5042426;28;20482;-64
2023/03/26 00:10:29;;;;;;;4.60;1.03;;;;;;;8.93;99.54;99703.66;5052891;28;20490;-65
2023/03/26 00:12:55;;;;;;;7.20;1.60;;;;;;;8.92;100.00;99699.38;5053331;28;20453;-65
2023/03/26 00:15:22;;;;;;;4.90;1.00;;;;;;;8.96;99.20;99703.84;5052883;28;20442;-65
2023/03/26 00:17:49;;;;;;;4.30;0.80;;;;;;;9.01;98.42;99705.59;5047809;28;20439;-65
2023/03/26 00:20:17;;;;;;;5.00;1.00;;;;;;;9.07;97.61;99707.06;5033207;28;20502;-64
2023/03/26 00:22:44;;;;;;;5.20;1.23;;;;;;;9.06;97.16;99705.47;5032670;28;20471;-65
2023/03/26 00:25:10;;;;;;;7.47;1.40;;;;;;;9.08;96.71;99705.97;5033021;28;20451;-66
2023/03/26 00:27:38;;;;;;;5.70;1.60;;;;;;;9.02;97.21;99696.38;5052515;28;20904;-64
2023/03/26 00:30:06;;;;;;;4.47;0.80;;;;;;;9.01;97.61;99702.91;5048676;28;20490;-65
2023/03/26 00:32:33;;;;;;;5.93;1.30;;;;;;;8.98;97.17;99712.41;5033122;28;20443;-65
2023/03/26 00:35:01;;;;;;;6.83;1.23;;;;;;;8.96;96.70;99711.16;5037853;28;20446;-65
2023/03/26 00:37:29;;;;;;;4.43;1.07;;;;;;;8.92;97.00;99700.16;5037140;28;20534;-64
2023/03/26 00:40:03;;;;;;;6.20;1.27;;;;;;;8.98;96.45;99711.63;5052163;28;20442;-65
2023/03/26 00:42:30;;;;;;;5.00;0.97;;;;;;;8.96;95.92;99705.75;5045057;28;20837;-66
2023/03/26 00:44:57;;;;;;;4.33;1.00;;;;;;;8.95;95.94;99704.16;5033004;28;20454;-64
2023/03/26 00:47:24;;;;;;;4.20;0.60;;;;;;;8.79;96.61;99712.66;5032968;28;20516;-65
2023/03/26 00:49:50;;;;;;;5.17;0.83;;;;;;;8.86;96.61;99717.63;5032737;28;20530;-65
2023/03/26 00:52:18;;;;;;;4.90;0.93;;;;;;;8.84;97.48;99720.63;5032850;28;20446;-64
2023/03/26 00:54:46;;;;;;;4.20;0.77;;;;;;;8.94;96.15;99705.25;5033110;28;20443;-65
2023/03/26 00:57:13;;;;;;;5.40;0.97;;;;;;;8.96;95.29;99716.56;5040706;28;20948;-65
2023/03/26 00:59:41;;;;;;;4.40;0.80;;;;;;;8.90;96.12;99710.50;5052622;28;20443;-62
2023/03/26 01:02:11;;;;;;;4.47;0.63;;;;;;;8.84;95.76;99715.22;5040986;28;20819;-64
2023/03/26 01:04:39;;;;;;;5.13;1.00;;;;;;;8.84;96.84;99717.91;5032840;28;20427;-64
2023/03/26 01:07:12;;;;;;;5.20;0.67;;;;;;;8.88;96.92;99717.31;5036787;28;20546;-64
2023/03/26 01:09:41;;;;;;;4.63;1.17;;;;;;;8.87;97.41;99718.44;5052283;28;21017;-62
2023/03/26 01:12:14;;;;;;;4.17;0.70;;;;;;;8.77;99.90;99725.69;5052685;28;20446;-64
2023/03/26 01:14:41;;;;;;;5.57;1.03;;;;;;;8.66;100.00;99724.34;5067431;28;20434;-62
2023/03/26 01:17:11;;;;;;;4.87;1.20;;;;;;;8.54;100.00;99724.09;5072236;28;20506;-64
2023/03/26 01:19:41;;;;;;;4.50;1.00;;;;;;;8.46;100.00;99719.47;5072622;28;20441;-64
2023/03/26 01:22:10;;;;;;;4.50;0.73;;;;;;;8.42;100.00;99722.00;5072692;28;20472;-65
2023/03/26 01:24:39;;;;;;;4.73;1.30;;;;;;;8.41;100.00;99722.28;5058996;28;20530;-64
2023/03/26 01:27:16;;;;;;;5.00;0.93;;;;;;;8.34;100.00;99731.59;5042063;28;20450;-65
2023/03/26 01:29:46;;;;;;;4.87;1.30;;;;;;;8.28;100.00;99727.44;5052052;28;20512;-65
2023/03/26 01:32:26;;;;;;;5.77;1.00;;;;;;;8.26;100.00;99735.00;5037441;28;20550;-64
2023/03/26 01:35:08;;;;;;;4.87;0.90;;;;;;;8.27;100.00;99735.81;5034813;28;20435;-64
2023/03/26 01:37:45;;;;;;;7.20;1.27;;;;;;;8.21;100.00;99735.13;5048325;28;20434;-66
2023/03/26 01:40:17;;;;;;;4.73;0.90;;;;;;;8.20;100.00;99732.75;5035969;28;20462;-64
2023/03/26 01:42:52;;;;;;;4.20;0.70;;;;;;;8.20;100.00;99733.56;5045017;28;20439;-64
2023/03/26 01:45:23;;;;;;;4.53;0.90;;;;;;;8.15;100.00;99730.19;5055967;28;20462;-66
2023/03/26 01:47:50;;;;;;;4.60;0.73;;;;;;;8.17;100.00;99730.66;5055938;28;20437;-64
2023/03/26 01:50:17;;;;;;;5.67;1.30;;;;;;;8.17;100.00;99733.34;5055720;28;20477;-63
2023/03/26 01:52:43;;;;;;;4.33;0.73;;;;;;;8.19;100.00;99734.66;5055785;28;20452;-64
2023/03/26 01:55:11;;;;;;;4.60;0.90;;;;;;;8.20;100.00;99732.75;5044142;28;20494;-64
2023/03/26 01:57:54;;;;;;;4.10;0.60;;;;;;;8.25;100.00;99736.13;5035424;28;20940;-64
2023/03/26 02:00:28;;;;;;;4.67;0.63;;;;;;;8.21;100.00;99735.13;5035670;28;20487;-64
2023/03/26 02:03:04;;;;;;;4.20;0.70;;;;;;;8.28;100.00;99738.22;5035662;28;20454;-64
2023/03/26 02:05:36;;;;;;;4.10;0.67;;;;;;;8.29;100.00;99722.81;5035525;28;20458;-63
2023/03/26 02:08:10;;;;;;;4.20;0.60;;;;;;;8.31;100.00;99736.78;5035548;28;20530;-63
2023/03/26 02:10:42;;;;;;;6.23;1.40;;;;;;;8.37;100.00;99737.47;5043531;28;20551;-65
2023/03/26 02:13:11;;;;;;;4.60;0.80;;;;;;;8.32;100.00;99735.69;5055122;28;20442;-64
2023/03/26 02:15:37;;;;;;;4.63;0.80;;;;;;;8.19;100.00;99729.25;5055325;28;20449;-64
2023/03/26 02:18:04;;;;;;;4.60;0.80;;;;;;;8.14;100.00;99726.66;5054907;28;20435;-64
2023/03/26 02:20:32;;;;;;;4.50;0.97;;;;;;;8.17;100.00;99739.53;5040867;28;20561;-61
2023/03/26 02:22:59;;;;;;;5.00;1.10;;;;;;;8.20;100.00;99730.84;5044024;28;21018;-67
2023/03/26 02:25:25;;;;;;;5.07;1.07;;;;;;;8.12;100.00;99728.09;5055237;28;20438;-67
2023/03/26 02:27:53;;;;;;;5.07;0.90;;;;;;;8.08;100.00;99730.59;5043233;28;20455;-66
2023/03/26 02:30:24;;;;;;;5.90;1.53;;;;;;;8.05;100.00;99737.38;5049481;28;20847;-65
2023/03/26 02:32:52;;;;;;;4.77;1.00;;;;;;;8.08;100.00;99742.16;5056434;28;20446;-65
2023/03/26 02:35:19;;;;;;;6.80;1.10;;;;;;;8.13;100.00;99751.25;5054983;28;20457;-65
2023/03/26 02:37:49;;;;;;;10.20;1.13;;;;;;;8.13;100.00;99754.75;5036493;28;20443;-64
2023/03/26 02:40:16;;;;;;;5.00;1.17;;;;;;;8.16;100.00;99754.16;5037323;28;20494;-64
2023/03/26 02:42:43;;;;;;;5.50;1.10;;;;;;;8.19;100.00;99756.25;5051729;28;20450;-64
2023/03/26 02:45:10;;;;;;;5.97;1.20;;;;;;;8.14;100.00;99750.16;5044600;28;20437;-64
2023/03/26 02:47:38;;;;;;;5.80;1.57;;;;;;;8.19;100.00;99755.41;5054737;28;20872;-64
2023/03/26 02:50:05;;;;;;;6.50;1.03;;;;;;;8.22;100.00;99750.22;5036743;28;21008;-64
2023/03/26 02:52:32;;;;;;;4.70;0.80;;;;;;;8.24;100.00;99750.72;5034448;28;20439;-65
2023/03/26 02:54:59;;;;;;;4.73;1.00;;;;;;;8.28;100.00;99751.72;5034659;28;20442;-65
2023/03/26 02:57:25;;;;;;;5.93;1.20;;;;;;;8.30;100.00;99765.66;5034672;28;20446;-64
2023/03/26 02:59:52;;;;;;;4.50;1.17;;;;;;;8.37;100.00;99761.78;5048989;28;20449;-64
2023/03/26 03:02:19;;;;;;;5.43;1.43;;;;;;;8.31;100.00;99764.56;5039753;28;20486;-64
2023/03/26 03:04:47;;;;;;;5.30;1.23;;;;;;;8.34;100.00;99769.34;5034188;28;21044;-64
2023/03/26 03:07:14;;;;;;;4.43;1.10;;;;;;;8.34;100.00;99755.88;5034431;28;20474;-64
2023/03/26 03:09:41;;;;;;;4.57;0.97;;;;;;;8.29;100.00;99772.19;5034312;28;20479;-64
2023/03/26 03:12:08;;;;;;;7.70;1.07;;;;;;;8.28;100.00;99778.69;5034281;28;20443;-64
2023/03/26 03:14:34;;;;;;;7.20;1.47;;;;;;;8.35;100.00;99762.84;5037919;28;20510;-64
2023/03/26 03:17:01;;;;;;;4.80;1.20;;;;;;;8.50;100.00;99766.31;5053850;28;20452;-65
2023/03/26 03:19:27;;;;;;;4.83;1.10;;;;;;;8.48;100.00;99765.84;5053793;28;20825;-64
2023/03/26 03:21:55;;;;;;;5.80;0.93;;;;;;;8.42;100.00;99764.38;5053638;28;20469;-64
2023/03/26 03:24:22;;;;;;;5.00;1.27;;;;;;;8.37;100.00;99772.56;5053438;28;20537;-65
2023/03/26 03:26:49;;;;;;;7.10;1.30;;;;;;;8.42;100.00;99775.16;5053624;28;20622;-64
2023/03/26 03:29:16;;;;;;;4.73;1.00;;;;;;;8.48;100.00;99765.84;5044118;28;20479;-65
2023/03/26 03:31:42;;;;;;;6.80;1.50;;;;;;;8.51;100.00;99763.31;5033419;28;20482;-64
2023/03/26 03:34:09;;;;;;;5.40;1.70;;;;;;;8.49;100.00;99768.22;5046384;28;20541;-64
2023/03/26 03:36:37;;;;;;;4.70;1.07;;;;;;;8.53;100.00;99761.09;5053183;28;20442;-64
2023/03/26 03:39:05;;;;;;;4.77;1.33;;;;;;;8.48;100.00;99761.22;5053078;28;20454;-64
2023/03/26 03:41:32;;;;;;;5.23;1.23;;;;;;;8.52;100.00;99761.41;5040532;28;20466;-65
2023/03/26 03:44:00;;;;;;;6.03;1.27;;;;;;;8.49;100.00;99772.81;5034522;28;20991;-65
2023/03/26 03:46:27;;;;;;;4.63;1.00;;;;;;;8.51;100.00;99767.94;5052224;28;20449;-64
2023/03/26 03:48:53;;;;;;;6.23;1.47;;;;;;;8.51;100.00;99779.53;5047047;28;20447;-65
2023/03/26 03:51:20;;;;;;;5.00;1.20;;;;;;;8.46;100.00;99766.16;5043265;28;20486;-65
2023/03/26 03:53:48;;;;;;;4.50;1.10;;;;;;;8.43;100.00;99768.66;5053214;28;20529;-64
2023/03/26 03:56:17;;;;;;;3.93;0.50;;;;;;;8.39;100.00;99776.56;5052848;28;20434;-64
2023/03/26 03:58:46;;;;;;;7.60;1.20;;;;;;;8.40;100.00;99774.66;5052359;28;20540;-64
2023/03/26 04:01:14;;;;;;;8.23;1.23;;;;;;;8.50;100.00;99785.19;5052370;28;20466;-65
2023/03/26 04:03:40;;;;;;;5.23;1.20;;;;;;;8.45;100.00;99788.03;5037153;28;20459;-65
2023/03/26 04:06:09;;;;;;;9.67;1.37;;;;;;;8.45;100.00;99777.22;5033377;28;20872;-65
2023/03/26 04:08:36;;;;;;;6.73;1.20;;;;;;;8.49;100.00;99780.91;5033357;28;20446;-65
2023/03/26 04:11:03;;;;;;;7.80;1.67;;;;;;;8.47;99.88;99780.44;5034205;28;20478;-65
2023/03/26 04:13:31;;;;;;;5.20;1.00;;;;;;;8.55;99.85;99799.41;5040174;28;20463;-65
2023/03/26 04:15:58;;;;;;;5.30;1.10;;;;;;;8.47;100.00;99783.13;5041692;28;20486;-65
2023/03/26 04:18:26;;;;;;;5.07;1.00;;;;;;;8.39;100.00;99773.06;5032983;28;20988;-65
2023/03/26 04:20:54;;;;;;;6.50;1.27;;;;;;;8.40;100.00;99788.16;5033156;28;20463;-65
2023/03/26 04:23:22;;;;;;;7.83;1.50;;;;;;;8.42;100.00;99784.06;5035123;28;20538;-65
2023/03/26 04:25:52;;;;;;;7.00;1.10;;;;;;;8.43;100.00;99779.44;5052772;28;20532;-65
2023/03/26 04:28:29;;;;;;;4.57;0.93;;;;;;;8.45;100.00;99790.72;5051189;28;20811;-65
2023/03/26 04:31:00;;;;;;;5.07;1.30;;;;;;;8.45;99.76;99780.72;5032675;28;20494;-65
2023/03/26 04:33:29;;;;;;;4.53;1.00;;;;;;;8.37;100.00;99780.66;5035925;28;20470;-65
2023/03/26 04:36:00;;;;;;;7.13;1.10;;;;;;;8.36;100.00;99779.84;5053000;28;20552;-65
2023/03/26 04:38:27;;;;;;;4.53;0.80;;;;;;;8.31;100.00;99772.66;5035523;28;20477;-64
2023/03/26 04:40:58;;;;;;;7.27;1.13;;;;;;;8.35;100.00;99779.03;5052609;28;20497;-64
2023/03/26 04:43:26;;;;;;;4.80;0.80;;;;;;;8.28;100.00;99778.69;5040888;28;20514;-65
2023/03/26 04:45:53;;;;;;;4.37;0.80;;;;;;;8.33;99.79;99786.66;5032935;28;20443;-65
2023/03/26 04:48:22;;;;;;;4.67;1.00;;;;;;;8.28;100.00;99788.69;5051187;28;20906;-64
2023/03/26 04:50:49;;;;;;;6.37;1.10;;;;;;;8.30;99.51;99787.25;5050969;28;20478;-65
2023/03/26 04:53:17;;;;;;;4.37;0.73;;;;;;;8.25;100.00;99786.59;5043095;28;20534;-65
2023/03/26 04:55:49;;;;;;;4.40;0.83;;;;;;;8.23;99.60;99786.88;5048233;28;20537;-66
2023/03/26 04:58:16;;;;;;;5.00;1.27;;;;;;;8.21;100.00;99789.09;5052506;28;20818;-64
2023/03/26 05:00:43;;;;;;;4.30;0.87;;;;;;;8.21;100.00;99788.28;5048026;28;20550;-65
2023/03/26 05:03:11;;;;;;;4.60;0.90;;;;;;;8.27;100.00;99787.84;5050142;28;20450;-64
2023/03/26 05:05:39;;;;;;;8.87;1.27;;;;;;;8.29;100.00;99788.38;5052174;28;20472;-64
2023/03/26 05:08:06;;;;;;;4.87;0.97;;;;;;;8.32;100.00;99786.94;5051728;28;20450;-65
2023/03/26 05:10:33;;;;;;;5.33;1.37;;;;;;;8.32;100.00;99790.47;5036446;28;20865;-64
2023/03/26 05:13:00;;;;;;;5.17;1.00;;;;;;;8.34;100.00;99785.53;5037566;28;20449;-64
2023/03/26 05:15:27;;;;;;;4.87;1.03;;;;;;;8.29;100.00;99784.88;5036494;28;20455;-64
2023/03/26 05:17:54;;;;;;;7.20;1.40;;;;;;;8.39;100.00;99789.25;5037992;28;20451;-64
2023/03/26 05:20:23;;;;;;;4.50;0.90;;;;;;;8.47;100.00;99791.22;5055651;28;20469;-64
2023/03/26 05:22:51;;;;;;;5.87;1.23;;;;;;;8.44;100.00;99791.84;5054343;28;21043;-63
2023/03/26 05:25:19;;;;;;;6.00;1.40;;;;;;;8.50;99.97;99790.59;5055925;28;20448;-64
2023/03/26 05:27:46;;;;;;;5.00;1.30;;;;;;;8.45;100.00;99793.41;5055653;28;20537;-64
2023/03/26 05:30:15;;;;;;;6.27;1.37;;;;;;;8.49;100.00;99799.81;5038048;28;20487;-64
2023/03/26 05:32:41;;;;;;;9.33;1.20;;;;;;;8.52;99.58;99789.19;5039755;28;20450;-66
2023/03/26 05:35:09;;;;;;;5.13;1.17;;;;;;;8.55;98.74;99794.00;5044508;28;20931;-64
2023/03/26 05:37:37;;;;;;;5.07;1.07;;;;;;;8.54;98.70;99796.97;5056144;28;20442;-65
2023/03/26 05:40:12;;;;;;;4.83;1.00;;;;;;;8.52;98.76;99793.81;5043504;28;20467;-64
2023/03/26 05:42:39;;;;;;;7.53;1.50;;;;;;;8.51;98.84;99800.31;5036132;28;20485;-64
2023/03/26 05:45:07;;;;;;;4.60;1.17;;;;;;;8.44;99.65;99797.22;5035772;28;20936;-65
2023/03/26 05:47:34;;;;;;;8.23;1.33;;;;;;;8.41;99.45;99803.22;5035996;28;20447;-64
2023/03/26 05:50:01;;;;;;;6.93;1.20;;;;;;;8.33;99.95;99794.75;5035470;28;20483;-65
2023/03/26 05:52:27;;;;;;;4.20;0.70;;;;;;;8.37;99.41;99800.38;5049923;28;21001;-64
2023/03/26 05:54:54;;;;;;;6.53;1.17;;;;;;;8.24;100.00;99795.78;5055752;28;20442;-64
2023/03/26 05:57:22;;;;;;;7.37;1.23;;;;;;;8.39;99.50;99797.34;5055421;28;20959;-64
2023/03/26 05:59:49;;;;;;;5.67;1.00;;;;;;;8.40;99.17;99812.44;5055782;28;20446;-64
2023/03/26 06:02:16;;;;;;;5.87;1.53;;;;;;;8.42;98.33;99804.84;5055324;28;20438;-65
2023/03/26 06:04:44;;;;;;;6.03;1.23;;;;;;;8.40;98.37;99807.03;5055533;28;20873;-64
2023/03/26 06:07:11;;;;;;;4.80;1.10;;;;;;;8.46;97.80;99808.53;5041534;28;20450;-64
2023/03/26 06:09:39;;;;;;;4.60;0.90;;;;;;;8.48;97.42;99809.81;5048958;28;20971;-65
2023/03/26 06:12:07;;;;;;;4.23;0.70;;;;;;;8.42;98.16;99810.25;5037036;28;20525;-66
2023/03/26 06:14:35;;;;;;;4.70;1.10;;;;;;;8.45;96.96;99805.00;5035771;28;20451;-64
2023/03/26 06:17:02;;;;;;;6.00;1.30;;;;;;;8.41;96.20;99798.66;5035308;28;20444;-65
2023/03/26 06:19:29;;;;;;;4.57;1.33;;;;;;;8.31;96.52;99809.63;5035446;28;20444;-65
2023/03/26 06:21:55;;;;;;;7.87;1.50;;;;;;;8.30;96.31;99808.84;5045801;28;20550;-65
2023/03/26 06:24:22;;;;;;;4.87;1.13;;;;;;;8.27;96.69;99811.34;5054939;28;20553;-65
2023/03/26 06:26:49;;;;;;;4.33;0.87;;;;;;;8.20;97.51;99811.78;5054970;28;20533;-65
2023/03/26 06:29:16;;;;;;;4.67;0.90;;;;;;;8.11;98.68;99816.31;5054822;28;20450;-65
2023/03/26 06:31:43;;;;;;;4.67;0.80;;;;;;;8.04;99.96;99824.00;5052804;28;20488;-65
2023/03/26 06:34:10;;;;;;;4.87;1.00;;;;;;;8.02;100.00;99812.72;5038525;28;20497;-66
2023/03/26 06:36:37;;;;;;;7.00;1.30;;;;;;;7.97;100.00;99816.31;5035421;28;20462;-65
2023/03/26 06:39:04;;;;;;;5.03;1.00;;;;;;;8.08;100.00;99812.28;5035094;28;20454;-65
2023/03/26 06:41:33;;;;;;;7.27;1.20;;;;;;;8.01;100.00;99800.31;5034997;28;20863;-66
2023/03/26 06:43:59;;;;;;;4.07;0.77;;;;;;;7.97;100.00;99810.13;5053550;28;20470;-66
2023/03/26 06:46:26;;;;;;;4.33;0.70;;;;;;;7.96;100.00;99811.22;5036209;28;20450;-65
2023/03/26 06:48:54;;;;;;;7.37;1.00;;;;;;;7.99;100.00;99807.94;5034483;28;20967;-65
2023/03/26 06:51:21;;;;;;;5.10;0.93;;;;;;;8.02;100.00;99812.72;5052750;28;20488;-68
2023/03/26 06:53:47;;;;;;;4.50;0.90;;;;;;;8.06;100.00;99809.13;5052681;28;20893;-67
2023/03/26 06:56:14;;;;;;;5.93;0.90;;;;;;;8.08;100.00;99811.50;5054329;28;20453;-64
2023/03/26 06:58:40;;;;;;;5.50;1.33;;;;;;;8.14;100.00;99818.38;5054203;28;20441;-64
2023/03/26 07:01:07;;;;;;;4.90;1.03;;;;;;;8.12;100.00;99823.28;5054443;28;20485;-64
2023/03/26 07:03:34;;;;;;;4.87;0.93;;;;;;;8.19;100.00;99823.69;5045501;28;20960;-64
2023/03/26 07:06:02;;;;;;;5.60;1.23;;;;;;;8.32;100.00;99825.53;5034457;28;20526;-66
2023/03/26 07:08:29;;;;;;;7.17;1.10;;;;;;;8.48;100.00;99826.00;5037793;28;20452;-64
2023/03/26 07:10:56;;;;;;;4.70;1.00;;;;;;;8.58;99.75;99825.75;5053885;28;20854;-64
2023/03/26 07:13:22;;;;;;;7.70;1.20;;;;;;;8.71;98.20;99817.91;5052352;28;20481;-67
2023/03/26 07:15:49;;;;;;;5.03;0.97;;;;;;;8.71;98.81;99823.31;5034253;28;20443;-68
2023/03/26 07:18:16;;;;;;;4.50;1.13;;;;;;;8.72;96.91;99828.41;5034473;28;20454;-65
2023/03/26 07:20:44;;;;;;;4.57;1.10;;;;;;;8.82;96.34;99828.16;5033736;28;20558;-64
2023/03/26 07:23:14;;;;;;;5.60;1.03;;;;;;;8.81;96.24;99829.28;5034217;28;20447;-65
2023/03/26 07:25:41;;;;;;;6.13;0.77;;;;;;;8.81;96.01;99823.88;5040637;28;20455;-64
2023/03/26 07:28:19;;;;;;;5.30;1.10;;;;;;;8.75;95.61;99819.69;5033739;28;20972;-63
2023/03/26 07:30:59;;;;;;;6.83;1.33;;;;;;;8.83;96.30;99820.84;5046884;28;20477;-62
2023/03/26 07:33:31;;;;;;;4.50;1.00;;;;;;;8.96;96.76;99819.19;5047681;28;20447;-70
2023/03/26 07:36:09;;;;;;;4.70;1.00;;;;;;;8.99;96.16;99829.38;5048114;28;20450;-65
2023/03/26 07:38:48;;;;;;;5.27;1.13;;;;;;;9.03;95.77;99823.06;5051345;28;20430;-66
2023/03/26 07:41:23;;;;;;;4.10;0.60;;;;;;;9.09;94.88;99823.72;5033835;28;20821;-66
2023/03/26 07:44:34;;;;;;;6.33;1.20;;;;;;;9.12;94.71;99828.50;5033579;28;20431;-67
2023/03/26 07:47:08;;;;;;;5.03;0.90;;;;;;;9.02;93.82;99831.44;5023594;28;20486;-71
2023/03/26 07:49:36;;;;;;;4.00;0.53;;;;;;;9.03;94.02;99819.53;5051094;28;20533;-67
2023/03/26 07:52:04;;;;;;;4.30;0.80;;;;;;;9.14;94.14;99823.56;5040557;28;20577;-68
2023/03/26 07:54:32;;;;;;;5.13;1.03;;;;;;;9.16;92.69;99825.97;5049198;28;20446;-66
2023/03/26 07:57:04;;;;;;;7.13;1.20;;;;;;;9.15;93.33;99827.06;5053130;28;20454;-68
2023/03/26 07:59:36;;;;;;;4.33;0.90;;;;;;;9.17;92.72;99816.78;5053146;28;20959;-65
2023/03/26 08:02:51;;;;;;;6.20;1.20;;;;;;;9.18;92.89;99821.84;5049160;28;20478;-66
2023/03/26 08:05:25;;;;;;;6.43;1.30;;;;;;;9.15;92.14;99814.34;4979514;28;20441;-65
2023/03/26 08:08:04;;;;;;;5.30;0.97;;;;;;;9.18;92.76;99827.25;5035485;28;20976;-67
2023/03/26 08:10:38;;;;;;;4.70;1.27;;;;;;;9.17;93.54;99822.97;5044008;28;20510;-66
2023/03/26 08:13:17;;;;;;;4.50;1.10;;;;;;;9.28;91.92;99813.47;5033362;28;20498;-67
2023/03/26 08:15:52;;;;;;;4.77;1.30;;;;;;;9.38;91.34;99811.59;5048244;28;20445;-65
2023/03/26 08:18:30;;;;;;;6.63;0.93;;;;;;;9.43;90.91;99814.97;5052820;28;21004;-65
2023/03/26 08:20:59;;;;;;;5.10;1.37;;;;;;;9.39;89.26;99805.09;5045991;28;20503;-66
2023/03/26 08:23:32;;;;;;;5.50;0.83;;;;;;;9.43;89.31;99820.38;5033079;28;20431;-66
2023/03/26 08:26:11;;;;;;;4.50;1.10;;;;;;;9.30;90.75;99813.97;5032878;28;20435;-66
2023/03/26 08:28:54;;;;;;;6.10;1.37;;;;;;;9.14;92.69;99814.69;5033865;28;20445;-67
2023/03/26 08:31:31;;;;;;;4.40;0.70;;;;;;;9.10;92.37;99815.28;5032657;28;20490;-66
2023/03/26 08:33:58;;;;;;;4.53;1.17;;;;;;;8.99;94.25;99803.16;5033173;28;20440;-66
2023/03/26 08:36:25;;;;;;;4.13;0.77;;;;;;;8.94;94.93;99811.41;5033123;28;20453;-67
2023/03/26 08:38:52;;;;;;;4.43;0.83;;;;;;;8.95;95.86;99813.00;5044764;28;20529;-66
2023/03/26 08:41:47;;;;;;;5.47;1.33;;;;;;;9.04;94.27;99810.34;5050376;28;20512;-66
2023/03/26 08:44:47;;;;;;;5.20;1.10;;;;;;;9.10;94.78;99809.09;5018521;28;20517;-66
2023/03/26 08:47:50;;;;;;;6.73;1.10;;;;;;;9.15;94.06;99808.16;5054573;28;20430;-67
2023/03/26 08:50:39;;;;;;;9.23;1.03;;;;;;;9.18;91.61;99804.84;5056251;28;20557;-67
2023/03/26 08:53:29;;;;;;;5.27;1.33;;;;;;;9.28;91.68;99805.34;5053936;28;20509;-66
2023/03/26 08:56:01;;;;;;;5.27;0.60;;;;;;;9.36;92.05;99801.09;5056483;28;20435;-66
2023/03/26 08:59:11;;;;;;;8.60;1.30;;;;;;;9.42;91.23;99799.06;5056614;28;20426;-66
2023/03/26 09:02:06;;;;;;;4.90;1.17;;;;;;;9.37;89.02;99805.41;5045397;28;20454;-69
2023/03/26 09:05:09;;;;;;;4.93;1.20;;;;;;;9.33;88.92;99790.91;5056700;28;20414;-66
2023/03/26 09:08:11;;;;;;;4.67;1.03;;;;;;;9.04;91.81;99805.72;5001227;28;20443;-65
2023/03/26 09:10:51;;;;;;;9.73;1.17;;;;;;;8.74;94.69;99810.00;5036689;28;20524;-64
2023/03/26 09:14:01;;;;;;;5.03;1.17;;;;;;;8.40;96.48;99807.84;5059569;28;20482;-65
2023/03/26 09:16:53;;;;;;;4.33;0.80;;;;;;;8.17;99.35;99804.28;5022949;28;20932;-64
2023/03/26 09:20:23;;;;;;;6.80;1.30;;;;;;;7.64;100.00;99806.78;5036224;28;20446;-65
2023/03/26 09:23:21;;;;;;;8.10;1.00;;;;;;;7.46;100.00;99805.78;4936803;29;20964;-64
2023/03/26 09:25:59;;;;;;;4.73;0.90;;;;;;;7.46;100.00;99797.69;4972026;28;20478;-65
2023/03/26 09:29:18;;;;;;;5.30;0.90;;;;;;;7.63;100.00;99800.59;5023554;28;20477;-65
2023/03/26 09:32:11;;;;;;;4.33;0.87;;;;;;;7.51;100.00;99808.38;5053095;28;20528;-65
2023/03/26 09:34:56;;;;;;;4.17;0.63;;;;;;;7.43;100.00;99796.38;5036330;28;20431;-66
2023/03/26 09:37:28;;;;;;;5.47;0.60;;;;;;;7.23;100.00;99802.19;5055426;28;20442;-66
2023/03/26 09:40:04;;;;;;;5.03;1.07;;;;;;;7.16;100.00;99802.56;5056061;28;20488;-66
2023/03/26 09:42:43;;;;;;;4.53;0.90;;;;;;;7.24;100.00;99785.72;5056110;28;20425;-66
2023/03/26 09:45:43;;;;;;;5.40;1.00;;;;;;;7.38;100.00;99798.38;5055295;28;20430;-67
2023/03/26 09:48:41;;;;;;;5.60;0.97;;;;;;;7.39;100.00;99799.97;5055641;28;20904;-67
2023/03/26 09:51:38;;;;;;;5.23;0.90;;;;;;;7.37;100.00;99799.50;5055876;28;20458;-66
2023/03/26 09:54:50;;;;;;;4.97;0.97;;;;;;;7.27;100.00;99803.19;5065991;28;20438;-67
2023/03/26 09:57:31;;;;;;;4.40;1.00;;;;;;;7.41;100.00;99809.38;5065650;28;20446;-66
2023/03/26 10:00:09;;;;;;;10.33;1.33;;;;;;;7.62;100.00;99807.09;5047979;28;20453;-66
2023/03/26 10:02:53;;;;;;;4.77;1.10;;;;;;;7.79;100.00;99803.75;5055688;28;20422;-66
2023/03/26 10:05:33;;;;;;;4.53;1.03;;;;;;;7.98;100.00;99809.03;5052665;28;20894;-66
2023/03/26 10:08:13;;;;;;;4.60;0.80;;;;;;;8.08;100.00;99806.09;5049730;28;20450;-67
2023/03/26 10:10:49;;;;;;;4.57;0.90;;;;;;;8.07;100.00;99801.81;5043862;28;20466;-65
2023/03/26 10:13:33;;;;;;;6.93;1.33;;;;;;;8.08;100.00;99806.09;5049133;28;20840;-65
2023/03/26 10:16:13;;;;;;;6.20;1.20;;;;;;;8.09;100.00;99805.00;5049078;28;20448;-67
2023/03/26 10:18:53;;;;;;;6.57;1.00;;;;;;;8.08;100.00;99803.41;5051763;28;20534;-67
2023/03/26 10:21:37;;;;;;;5.10;1.10;;;;;;;8.05;100.00;99802.09;5054638;28;20466;-66
2023/03/26 10:24:35;;;;;;;7.33;1.03;;;;;;;7.99;100.00;99806.03;5055188;28;20423;-66
2023/03/26 10:27:13;;;;;;;8.23;2.00;;;;;;;8.09;100.00;99802.31;5053499;28;20430;-66
2023/03/26 10:30:18;;;;;;;4.43;0.90;;;;;;;8.09;100.00;99794.22;5054014;28;20436;-65
2023/03/26 10:32:53;;;;;;;6.33;1.57;;;;;;;8.13;100.00;99795.19;5052353;28;20568;-67
2023/03/26 10:35:26;;;;;;;4.87;1.03;;;;;;;8.16;100.00;99800.00;5050296;28;20438;-66
2023/03/26 10:38:15;;;;;;;7.77;1.80;;;;;;;8.23;100.00;99797.66;5054765;28;20488;-64
2023/03/26 10:40:54;;;;;;;8.83;2.80;;;;;;;8.32;100.00;99793.16;5055019;28;20458;-66
2023/03/26 10:43:48;;;;;;;5.93;1.80;;;;;;;8.47;100.00;99793.94;5056801;28;20449;-67
2023/03/26 10:46:30;;;;;;;7.00;1.60;;;;;;;8.42;100.00;99804.84;5045763;28;20432;-64
2023/03/26 10:49:25;;;;;;;5.87;1.50;;;;;;;8.40;100.00;99790.84;5034962;28;20439;-66
2023/03/26 10:51:55;;;;;;;7.63;1.70;;;;;;;8.51;100.00;99803.00;5034474;28;20578;-66
2023/03/26 10:54:35;;;;;;;7.50;1.43;;;;;;;8.87;100.00;99805.63;5039178;28;20806;-66
2023/03/26 10:57:11;;;;;;;9.53;1.80;;;;;;;9.03;100.00;99803.31;5035121;28;20432;-66
2023/03/26 10:59:37;;;;;;;8.07;1.87;;;;;;;9.13;100.00;99800.38;5034737;28;20451;-66
2023/03/26 11:02:24;;;;;;;7.40;2.40;;;;;;;9.32;100.00;99795.53;5035822;28;20491;-68
2023/03/26 11:04:55;;;;;;;5.60;1.70;;;;;;;9.49;100.00;99786.69;5054503;28;20466;-67
2023/03/26 11:07:32;;;;;;;7.83;2.00;;;;;;;9.50;100.00;99790.19;5048527;28;20454;-67
2023/03/26 11:10:06;;;;;;;7.90;1.97;;;;;;;9.65;100.00;99786.25;5054908;28;20853;-66
2023/03/26 11:12:43;;;;;;;6.67;1.57;;;;;;;9.76;100.00;99787.56;5054595;28;20467;-66
2023/03/26 11:15:22;;;;;;;7.30;1.53;;;;;;;9.76;99.73;99784.84;5054197;28;20900;-66
2023/03/26 11:17:58;;;;;;;7.33;1.37;;;;;;;9.93;99.40;99793.00;5054445;28;20484;-66
2023/03/26 11:20:36;;;;;;;5.10;1.17;;;;;;;10.11;97.57;99783.78;5053994;28;20476;-67
2023/03/26 11:23:23;;;;;;;7.73;1.93;;;;;;;10.50;98.00;99776.66;5054350;28;20422;-66
2023/03/26 11:26:05;;;;;;;4.70;1.20;;;;;;;11.17;95.76;99777.94;5053924;28;20923;-66
2023/03/26 11:28:44;;;;;;;7.47;2.50;;;;;;;11.42;93.95;99778.94;5054162;28;20780;-66
2023/03/26 11:31:19;;;;;;;5.37;1.43;;;;;;;11.25;91.16;99777.09;5053746;28;20536;-66
2023/03/26 11:33:50;;;;;;;7.17;1.70;;;;;;;11.04;93.10;99779.72;5054039;28;20473;-66
2023/03/26 11:36:20;;;;;;;6.77;1.60;;;;;;;10.98;93.73;99778.31;5053697;28;20473;-66
2023/03/26 11:38:49;;;;;;;6.20;1.20;;;;;;;11.21;91.30;99776.16;5054194;28;20450;-66
2023/03/26 11:41:21;;;;;;;6.20;1.33;;;;;;;11.57;90.16;99783.00;5054151;28;20562;-67
2023/03/26 11:43:52;;;;;;;6.67;1.53;;;;;;;11.58;88.36;99782.69;5054234;28;20480;-67
2023/03/26 11:46:22;;;;;;;7.33;1.80;;;;;;;11.48;87.53;99776.84;5053544;28;20470;-66
2023/03/26 11:48:53;;;;;;;6.27;1.37;;;;;;;11.31;85.33;99778.50;5053712;28;20801;-65
2023/03/26 11:51:25;;;;;;;5.27;1.03;;;;;;;11.09;83.86;99773.31;5053334;28;20502;-67
2023/03/26 11:53:53;;;;;;;16.70;1.97;;;;;;;11.07;85.61;99770.16;5053299;28;21083;-64
2023/03/26 11:56:29;;;;;;;4.77;0.93;;;;;;;11.11;86.91;99765.66;5053283;28;20442;-65
2023/03/26 11:59:00;;;;;;;6.47;1.17;;;;;;;11.04;86.36;99766.16;5053268;28;20434;-67
2023/03/26 12:01:39;;;;;;;5.40;1.40;;;;;;;11.05;87.74;99762.34;5053434;28;20569;-67
2023/03/26 12:04:12;;;;;;;8.57;1.40;;;;;;;11.09;88.62;99763.28;5053478;28;20510;-66